createdAt,value
2018-09-23T00:00:52.708Z,12.00
2018-09-23T00:03:20.647Z,12.00
2018-09-23T00:05:48.664Z,11.90
2018-09-23T00:08:16.547Z,11.90
2018-09-23T00:10:44.312Z,11.90
2018-09-23T00:13:12.327Z,11.90
2018-09-23T00:15:40.065Z,12.00
2018-09-23T00:18:07.953Z,11.90
2018-09-23T00:20:35.832Z,11.90
2018-09-23T00:23:03.791Z,11.90
2018-09-23T00:25:31.761Z,11.90
2018-09-23T00:27:59.686Z,11.90
2018-09-23T00:30:27.482Z,11.80
2018-09-23T00:32:55.629Z,11.90
2018-09-23T00:35:23.458Z,11.80
2018-09-23T00:37:51.510Z,11.80
2018-09-23T00:40:19.349Z,11.70
2018-09-23T00:42:47.189Z,11.70
2018-09-23T00:45:15.082Z,11.60
2018-09-23T00:47:43.079Z,11.60
2018-09-23T00:50:10.938Z,11.60
2018-09-23T00:52:38.711Z,11.60
2018-09-23T00:55:06.661Z,11.50
2018-09-23T00:57:34.432Z,11.60
2018-09-23T01:00:02.784Z,11.60
2018-09-23T01:02:30.638Z,11.60
2018-09-23T01:04:58.494Z,11.70
2018-09-23T01:07:26.462Z,11.60
2018-09-23T01:09:54.315Z,11.60
2018-09-23T01:12:22.326Z,11.60
2018-09-23T01:14:50.142Z,11.60
2018-09-23T01:17:17.901Z,11.60
2018-09-23T01:19:45.930Z,11.70
2018-09-23T01:22:13.822Z,11.70
2018-09-23T01:24:41.662Z,11.70
2018-09-23T01:27:09.557Z,11.70
2018-09-23T01:29:37.478Z,11.70
2018-09-23T01:32:05.511Z,11.70
2018-09-23T01:34:33.430Z,11.70
2018-09-23T01:37:01.277Z,11.70
2018-09-23T01:39:29.207Z,11.70
2018-09-23T01:41:57.095Z,11.70
2018-09-23T01:44:25.065Z,11.70
2018-09-23T01:46:52.991Z,11.60
2018-09-23T01:49:20.876Z,11.60
2018-09-23T01:51:49.173Z,11.60
2018-09-23T01:54:17.159Z,11.70
2018-09-23T01:56:44.958Z,11.70
2018-09-23T01:59:13.083Z,11.70
2018-09-23T02:01:40.800Z,11.70
2018-09-23T02:04:08.559Z,11.70
2018-09-23T02:06:36.335Z,11.70
2018-09-23T02:09:05.549Z,11.70
2018-09-23T02:11:33.390Z,11.70
2018-09-23T02:14:01.201Z,11.70
2018-09-23T02:16:29.045Z,11.70
2018-09-23T02:18:56.887Z,11.70
2018-09-23T02:21:24.683Z,11.60
2018-09-23T02:23:52.641Z,11.60
2018-09-23T02:26:20.538Z,11.60
2018-09-23T02:28:48.567Z,11.60
2018-09-23T02:31:16.364Z,11.70
2018-09-23T02:33:44.189Z,11.70
2018-09-23T02:36:12.208Z,11.60
2018-09-23T02:38:40.355Z,11.60
2018-09-23T02:41:08.363Z,11.70
2018-09-23T02:43:36.138Z,11.60
2018-09-23T02:46:04.013Z,11.60
2018-09-23T02:48:31.782Z,11.60
2018-09-23T02:50:59.812Z,11.60
2018-09-23T02:53:27.985Z,11.60
2018-09-23T02:55:55.753Z,11.60
2018-09-23T02:58:23.502Z,11.60
2018-09-23T03:00:51.612Z,11.60
2018-09-23T03:03:19.712Z,11.60
2018-09-23T03:05:47.463Z,11.60
2018-09-23T03:08:15.376Z,11.50
2018-09-23T03:10:43.331Z,11.60
2018-09-23T03:13:11.095Z,11.50
2018-09-23T03:15:38.843Z,11.60
2018-09-23T03:18:06.790Z,11.60
2018-09-23T03:20:34.596Z,11.60
2018-09-23T03:23:02.793Z,11.60
2018-09-23T03:25:30.818Z,11.70
2018-09-23T03:27:58.608Z,11.70
2018-09-23T03:30:26.369Z,11.80
2018-09-23T03:32:54.091Z,11.80
2018-09-23T03:35:21.979Z,11.70
2018-09-23T03:37:49.735Z,11.70
2018-09-23T03:40:17.478Z,11.70
2018-09-23T03:42:45.305Z,11.80
2018-09-23T03:45:13.166Z,11.70
2018-09-23T03:47:40.920Z,11.80
2018-09-23T03:50:08.667Z,11.80
2018-09-23T03:52:36.748Z,11.70
2018-09-23T03:55:04.705Z,11.80
2018-09-23T03:57:32.469Z,11.80
2018-09-23T04:00:00.247Z,11.80
2018-09-23T04:02:28.066Z,11.70
2018-09-23T04:04:55.883Z,11.70
2018-09-23T04:07:23.622Z,11.70
2018-09-23T04:09:51.461Z,11.70
2018-09-23T04:12:19.251Z,11.70
2018-09-23T04:14:47.005Z,11.70
2018-09-23T04:17:14.843Z,11.70
2018-09-23T04:19:42.659Z,11.70
2018-09-23T04:22:10.407Z,11.70
2018-09-23T04:24:38.230Z,11.70
2018-09-23T04:27:05.994Z,11.70
2018-09-23T04:29:33.965Z,11.70
2018-09-23T04:32:01.884Z,11.80
2018-09-23T04:34:29.649Z,11.80
2018-09-23T04:36:57.622Z,11.80
2018-09-23T04:39:25.524Z,11.80
2018-09-23T04:41:53.401Z,11.80
2018-09-23T04:44:21.443Z,11.80
2018-09-23T04:46:49.362Z,11.80
2018-09-23T04:49:17.125Z,11.80
2018-09-23T04:51:45.003Z,11.70
2018-09-23T04:54:12.963Z,11.70
2018-09-23T04:56:40.723Z,11.80
2018-09-23T04:59:08.628Z,11.80
2018-09-23T05:01:36.518Z,11.80
2018-09-23T05:04:04.352Z,11.80
2018-09-23T05:06:32.123Z,11.90
2018-09-23T05:08:59.905Z,11.80
2018-09-23T05:11:27.855Z,11.80
2018-09-23T05:13:55.656Z,11.80
2018-09-23T05:16:23.644Z,11.70
2018-09-23T05:18:51.561Z,11.70
2018-09-23T05:21:19.671Z,11.70
2018-09-23T05:23:47.475Z,11.70
2018-09-23T05:26:15.283Z,11.70
2018-09-23T05:28:43.233Z,11.80
2018-09-23T05:31:11.100Z,11.80
2018-09-23T05:33:39.047Z,11.70
2018-09-23T05:36:06.802Z,11.70
2018-09-23T05:38:34.847Z,11.80
2018-09-23T05:41:02.851Z,11.80
2018-09-23T05:43:31.014Z,11.80
2018-09-23T05:45:58.872Z,11.80
2018-09-23T05:48:26.814Z,11.80
2018-09-23T05:50:54.586Z,11.80
2018-09-23T05:53:22.373Z,11.80
2018-09-23T05:55:50.239Z,11.80
2018-09-23T05:58:18.244Z,11.80
2018-09-23T06:00:49.309Z,11.90
2018-09-23T06:03:17.341Z,11.80
2018-09-23T06:05:45.097Z,11.90
2018-09-23T06:08:13.083Z,11.70
2018-09-23T06:10:41.014Z,11.80
2018-09-23T06:13:08.755Z,11.80
2018-09-23T06:15:36.582Z,11.90
2018-09-23T06:18:04.648Z,11.90
2018-09-23T06:20:32.475Z,11.90
2018-09-23T06:23:00.435Z,11.80
2018-09-23T06:25:28.377Z,11.90
2018-09-23T06:27:56.230Z,11.90
2018-09-23T06:30:24.171Z,11.90
2018-09-23T06:32:52.115Z,11.80
2018-09-23T06:35:20.130Z,11.90
2018-09-23T06:37:47.916Z,11.90
2018-09-23T06:40:15.858Z,11.90
2018-09-23T06:42:43.687Z,11.90
2018-09-23T06:45:11.433Z,12.00
2018-09-23T06:47:39.367Z,12.00
2018-09-23T06:50:07.392Z,11.90
2018-09-23T06:52:35.203Z,12.00
2018-09-23T06:55:03.159Z,12.00
2018-09-23T06:57:32.079Z,12.10
2018-09-23T06:59:59.877Z,12.10
2018-09-23T07:02:27.871Z,12.20
2018-09-23T07:04:55.681Z,12.20
2018-09-23T07:07:23.409Z,12.20
2018-09-23T07:09:51.587Z,12.20
2018-09-23T07:12:19.502Z,12.20
2018-09-23T07:14:47.658Z,12.20
2018-09-23T07:17:15.450Z,12.20
2018-09-23T07:19:43.472Z,12.20
2018-09-23T07:22:11.369Z,12.20
2018-09-23T07:24:39.388Z,12.20
2018-09-23T07:27:07.560Z,12.20
2018-09-23T07:29:35.474Z,12.30
2018-09-23T07:32:03.319Z,12.40
2018-09-23T07:34:31.227Z,12.50
2018-09-23T07:36:59.117Z,12.50
2018-09-23T07:39:27.013Z,12.40
2018-09-23T07:41:54.952Z,12.50
2018-09-23T07:44:22.847Z,12.50
2018-09-23T07:46:50.741Z,12.60
2018-09-23T07:49:18.691Z,12.60
2018-09-23T07:51:46.802Z,12.70
2018-09-23T07:54:14.710Z,12.80
2018-09-23T07:56:42.553Z,12.80
2018-09-23T07:59:10.499Z,12.80
2018-09-23T08:01:38.386Z,12.90
2018-09-23T08:04:06.345Z,12.80
2018-09-23T08:06:34.411Z,12.80
2018-09-23T08:09:02.365Z,12.90
2018-09-23T08:11:30.374Z,13.00
2018-09-23T08:13:58.694Z,13.00
2018-09-23T08:16:26.074Z,13.00
2018-09-23T08:18:54.149Z,13.00
2018-09-23T08:21:22.264Z,13.00
2018-09-23T08:23:50.421Z,12.90
2018-09-23T08:26:18.429Z,13.00
2018-09-23T08:28:46.253Z,13.10
2018-09-23T08:31:14.454Z,13.20
2018-09-23T08:33:42.330Z,13.20
2018-09-23T08:36:10.225Z,13.30
2018-09-23T08:41:23.536Z,13.50
2018-09-23T08:43:51.491Z,13.70
2018-09-23T08:46:19.384Z,13.80
2018-09-23T08:48:47.461Z,13.90
2018-09-23T08:51:15.700Z,14.00
2018-09-23T08:53:43.889Z,14.10
2018-09-23T08:56:11.789Z,14.20
2018-09-23T08:58:39.756Z,14.10
2018-09-23T09:01:08.363Z,14.20
2018-09-23T09:03:36.513Z,14.20
2018-09-23T09:06:04.532Z,14.10
2018-09-23T09:08:32.592Z,14.10
2018-09-23T09:11:00.608Z,14.10
2018-09-23T09:13:28.557Z,14.00
2018-09-23T09:15:56.653Z,14.00
2018-09-23T09:18:24.822Z,14.00
2018-09-23T09:20:52.702Z,13.90
2018-09-23T09:23:20.935Z,13.60
2018-09-23T09:25:49.007Z,13.60
2018-09-23T09:28:17.014Z,13.60
2018-09-23T09:30:45.750Z,13.70
2018-09-23T09:33:13.750Z,13.70
2018-09-23T09:35:41.835Z,13.70
2018-09-23T09:38:10.132Z,13.70
2018-09-23T09:40:38.541Z,13.70
2018-09-23T09:43:06.432Z,13.70
2018-09-23T09:45:34.628Z,13.60
2018-09-23T09:48:02.477Z,13.50
2018-09-23T09:50:30.861Z,13.50
2018-09-23T09:52:58.866Z,13.50
2018-09-23T09:55:26.993Z,13.30
2018-09-23T09:57:55.039Z,13.20
2018-09-23T10:00:28.893Z,13.20
2018-09-23T10:02:57.264Z,13.20
2018-09-23T10:05:25.327Z,13.10
2018-09-23T10:07:53.395Z,13.20
2018-09-23T10:10:21.266Z,13.30
2018-09-23T10:12:49.185Z,13.40
2018-09-23T10:15:17.401Z,13.50
2018-09-23T10:17:46.123Z,13.50
2018-09-23T10:20:14.407Z,13.50
2018-09-23T10:22:42.931Z,13.50
2018-09-23T10:25:10.837Z,13.40
2018-09-23T10:27:39.128Z,13.50
2018-09-23T10:30:07.977Z,13.60
2018-09-23T10:32:36.104Z,13.60
2018-09-23T10:35:04.213Z,13.60
2018-09-23T10:37:32.365Z,13.70
2018-09-23T10:40:00.726Z,13.70
2018-09-23T10:42:28.735Z,13.70
2018-09-23T10:44:56.623Z,13.60
2018-09-23T10:47:24.795Z,13.60
2018-09-23T10:49:52.671Z,13.70
2018-09-23T10:52:20.592Z,13.70
2018-09-23T10:54:48.706Z,13.70
2018-09-23T10:57:16.734Z,13.70
2018-09-23T10:59:44.807Z,13.70
2018-09-23T11:02:12.786Z,13.50
2018-09-23T11:04:40.803Z,13.40
2018-09-23T11:07:08.970Z,13.40
2018-09-23T11:09:36.939Z,13.40
2018-09-23T11:12:05.175Z,13.30
2018-09-23T11:14:33.191Z,13.20
2018-09-23T11:17:01.096Z,13.20
2018-09-23T11:19:29.123Z,13.20
2018-09-23T11:21:57.443Z,13.20
2018-09-23T11:24:25.739Z,13.20
2018-09-23T11:26:53.781Z,13.10
2018-09-23T11:29:21.842Z,13.00
2018-09-23T11:31:49.794Z,12.90
2018-09-23T11:34:17.689Z,12.80
2018-09-23T11:36:45.701Z,12.70
2018-09-23T11:39:13.944Z,12.60
2018-09-23T11:41:41.869Z,12.60
2018-09-23T11:44:10.060Z,12.60
2018-09-23T11:46:38.269Z,12.50
2018-09-23T11:49:06.177Z,12.50
2018-09-23T11:51:34.141Z,12.60
2018-09-23T11:54:02.264Z,12.60
2018-09-23T11:56:30.253Z,12.40
2018-09-23T11:58:58.414Z,12.40
2018-09-23T12:01:26.284Z,12.40
2018-09-23T12:03:54.615Z,12.30
2018-09-23T12:06:22.430Z,12.40
2018-09-23T12:08:50.331Z,12.40
2018-09-23T12:11:18.312Z,12.40
2018-09-23T12:13:46.505Z,12.40
2018-09-23T12:16:14.565Z,12.50
2018-09-23T12:18:42.825Z,12.50
2018-09-23T12:21:10.773Z,12.40
2018-09-23T12:23:38.753Z,12.50
2018-09-23T12:26:07.179Z,12.40
2018-09-23T12:28:34.961Z,12.40
2018-09-23T12:31:02.841Z,12.40
2018-09-23T12:33:30.714Z,12.20
2018-09-23T12:36:03.847Z,12.20
2018-09-23T12:38:33.516Z,12.20
2018-09-23T12:41:01.672Z,12.20
2018-09-23T12:43:29.847Z,12.20
2018-09-23T12:45:58.468Z,12.10
2018-09-23T12:48:26.516Z,12.10
2018-09-23T12:50:55.259Z,12.20
2018-09-23T12:53:23.455Z,12.20
2018-09-23T12:55:51.936Z,12.10
2018-09-23T12:58:20.042Z,12.00
2018-09-23T13:00:48.259Z,12.10
2018-09-23T13:03:16.241Z,12.00
2018-09-23T13:05:44.483Z,12.00
2018-09-23T13:08:12.705Z,12.10
2018-09-23T13:10:41.114Z,12.10
2018-09-23T13:13:09.108Z,11.90
2018-09-23T13:15:37.358Z,11.90
2018-09-23T13:18:05.432Z,11.70
2018-09-23T13:20:33.401Z,11.60
2018-09-23T13:23:01.479Z,11.50
2018-09-23T13:25:29.698Z,11.50
2018-09-23T13:27:57.595Z,11.50
2018-09-23T13:30:25.595Z,11.30
2018-09-23T13:32:53.856Z,11.20
2018-09-23T13:35:21.763Z,11.10
2018-09-23T13:37:49.885Z,11.10
2018-09-23T13:40:17.950Z,11.10
2018-09-23T13:42:48.324Z,11.00
2018-09-23T13:45:16.943Z,11.00
2018-09-23T13:47:44.889Z,11.00
2018-09-23T13:50:12.937Z,10.80
2018-09-23T13:52:41.895Z,10.80
2018-09-23T13:55:09.787Z,10.60
2018-09-23T13:57:38.667Z,10.60
2018-09-23T14:00:06.928Z,10.70
2018-09-23T14:02:35.134Z,10.70
2018-09-23T14:05:03.759Z,10.60
2018-09-23T14:07:32.013Z,10.40
2018-09-23T14:09:59.976Z,10.40
2018-09-23T14:12:28.061Z,10.30
2018-09-23T14:14:56.427Z,10.20
2018-09-23T14:17:24.506Z,10.30
2018-09-23T14:19:52.582Z,10.30
2018-09-23T14:22:20.598Z,10.30
2018-09-23T14:24:48.684Z,10.30
2018-09-23T14:27:16.874Z,10.40
2018-09-23T14:29:45.036Z,10.30
2018-09-23T14:32:13.169Z,10.30
2018-09-23T14:34:41.058Z,10.30
2018-09-23T14:37:09.456Z,10.40
2018-09-23T14:39:37.443Z,10.40
2018-09-23T14:42:06.858Z,10.40
2018-09-23T14:44:35.621Z,10.30
2018-09-23T14:47:03.955Z,10.30
2018-09-23T14:49:32.340Z,10.30
2018-09-23T14:52:00.679Z,10.30
2018-09-23T14:54:29.175Z,10.30
2018-09-23T14:56:57.012Z,10.30
2018-09-23T14:59:25.109Z,10.20
2018-09-23T15:01:53.328Z,10.20
2018-09-23T15:04:21.365Z,10.20
2018-09-23T15:06:49.466Z,10.10
2018-09-23T15:09:17.604Z,10.10
2018-09-23T15:11:45.870Z,10.00
2018-09-23T15:14:13.938Z,10.00
2018-09-23T15:16:41.968Z,10.00
2018-09-23T15:19:09.915Z,10.00
2018-09-23T15:21:38.274Z,10.00
2018-09-23T15:24:06.534Z,10.00
2018-09-23T15:26:34.510Z,9.90
2018-09-23T15:29:02.580Z,9.90
2018-09-23T15:31:30.522Z,10.00
2018-09-23T15:33:58.477Z,10.00
2018-09-23T15:36:26.680Z,9.90
2018-09-23T15:38:54.730Z,9.90
2018-09-23T15:41:23.037Z,9.90
2018-09-23T15:43:51.056Z,9.80
2018-09-23T15:46:19.079Z,9.70
2018-09-23T15:48:47.472Z,9.60
2018-09-23T15:56:11.454Z,9.60
2018-09-23T15:58:39.884Z,9.50
2018-09-23T16:01:07.866Z,9.50
2018-09-23T16:03:36.067Z,9.60
2018-09-23T16:06:04.344Z,9.50
2018-09-23T16:08:32.435Z,9.50
2018-09-23T16:11:00.697Z,9.50
2018-09-23T16:13:28.774Z,9.60
2018-09-23T16:15:56.851Z,9.50
2018-09-23T16:18:24.826Z,9.50
2018-09-23T16:20:52.897Z,9.50
2018-09-23T16:23:21.411Z,9.50
2018-09-23T16:25:49.393Z,9.50
2018-09-23T16:28:17.569Z,9.50
2018-09-23T16:30:45.587Z,9.50
2018-09-23T16:33:13.751Z,9.40
2018-09-23T16:35:42.019Z,9.40
2018-09-23T16:38:10.457Z,9.40
2018-09-23T16:40:38.459Z,9.30
2018-09-23T16:43:06.664Z,9.30
2018-09-23T16:45:34.752Z,9.30
2018-09-23T16:48:02.883Z,9.30
2018-09-23T16:50:30.953Z,9.20
2018-09-23T16:52:59.007Z,9.20
2018-09-23T16:55:27.174Z,9.00
2018-09-23T16:57:55.392Z,9.00
2018-09-23T17:00:23.638Z,8.80
2018-09-23T17:02:51.972Z,8.80
2018-09-23T17:05:20.433Z,8.80
2018-09-23T17:07:48.573Z,8.70
2018-09-23T17:10:16.637Z,8.70
2018-09-23T17:12:45.151Z,8.70
2018-09-23T17:15:13.324Z,8.70
2018-09-23T17:17:41.196Z,8.70
2018-09-23T17:20:09.355Z,8.70
2018-09-23T17:22:37.429Z,8.70
2018-09-23T17:25:05.646Z,8.70
2018-09-23T17:27:33.655Z,8.70
2018-09-23T17:30:02.359Z,8.60
2018-09-23T17:32:30.426Z,8.60
2018-09-23T17:34:58.520Z,8.60
2018-09-23T17:37:26.681Z,8.70
2018-09-23T17:39:54.941Z,8.70
2018-09-23T17:42:23.039Z,8.70
2018-09-23T17:44:51.240Z,8.70
2018-09-23T17:47:19.278Z,8.70
2018-09-23T17:49:47.241Z,8.70
2018-09-23T17:52:15.350Z,8.70
2018-09-23T17:54:43.367Z,8.60
2018-09-23T17:57:11.380Z,8.70
2018-09-23T17:59:39.581Z,8.70
2018-09-23T18:02:08.061Z,8.70
2018-09-23T18:04:36.371Z,8.70
2018-09-23T18:07:04.810Z,8.80
2018-09-23T18:09:34.730Z,8.80
2018-09-23T18:12:04.047Z,8.80
2018-09-23T18:14:33.735Z,8.80
2018-09-23T18:17:02.064Z,8.80
2018-09-23T18:19:30.679Z,8.70
2018-09-23T18:22:00.535Z,8.60
2018-09-23T18:24:29.720Z,8.60
2018-09-23T18:26:58.673Z,8.50
2018-09-23T18:29:28.082Z,8.50
2018-09-23T18:31:58.716Z,8.50
2018-09-23T18:34:28.862Z,8.60
2018-09-23T18:36:58.513Z,8.70
2018-09-23T18:39:27.715Z,8.80
2018-09-23T18:41:56.897Z,8.80
2018-09-23T18:44:25.699Z,8.90
2018-09-23T18:46:56.146Z,8.90
2018-09-23T18:49:25.300Z,8.90
2018-09-23T18:51:55.097Z,8.90
2018-09-23T18:54:29.178Z,8.90
2018-09-23T18:56:58.338Z,8.90
2018-09-23T18:59:27.481Z,8.90
2018-09-23T19:01:56.776Z,8.90
2018-09-23T19:04:25.395Z,9.00
2018-09-23T19:06:53.644Z,8.90
2018-09-23T19:09:21.928Z,9.00
2018-09-23T19:11:50.893Z,8.90
2018-09-23T19:14:19.332Z,9.00
2018-09-23T19:16:48.195Z,9.00
2018-09-23T19:19:17.776Z,9.10
2018-09-23T19:21:46.362Z,9.10
2018-09-23T19:24:15.971Z,9.10
2018-09-23T19:26:45.234Z,9.10
2018-09-23T19:29:14.099Z,9.10
2018-09-23T19:31:43.098Z,9.20
2018-09-23T19:34:11.252Z,9.20
2018-09-23T19:36:39.250Z,9.20
2018-09-23T19:39:07.946Z,9.00
2018-09-23T19:41:36.107Z,9.10
2018-09-23T19:44:04.236Z,9.10
2018-09-23T19:46:32.454Z,9.10
2018-09-23T19:49:01.036Z,9.20
2018-09-23T19:51:29.117Z,9.20
2018-09-23T19:53:57.571Z,9.20
2018-09-23T19:56:26.568Z,9.20
2018-09-23T19:58:56.772Z,9.30
2018-09-23T20:01:25.448Z,9.30
2018-09-23T20:03:54.358Z,9.30
2018-09-23T20:06:22.494Z,9.40
2018-09-23T20:08:50.334Z,9.30
2018-09-23T20:11:18.540Z,9.30
2018-09-23T20:13:46.372Z,9.40
2018-09-23T20:16:14.478Z,9.40
2018-09-23T20:18:42.511Z,9.40
2018-09-23T20:21:10.725Z,9.40
2018-09-23T20:23:38.699Z,9.40
2018-09-23T20:26:06.674Z,9.40
2018-09-23T20:28:34.775Z,9.40
2018-09-23T20:31:02.728Z,9.40
2018-09-23T20:33:30.804Z,9.50
2018-09-23T20:35:59.021Z,9.40
2018-09-23T20:38:26.884Z,9.20
2018-09-23T20:40:54.892Z,9.30
2018-09-23T20:43:23.002Z,9.30
2018-09-23T20:45:50.788Z,9.20
2018-09-23T20:48:18.670Z,9.20
2018-09-23T20:50:46.546Z,9.20
2018-09-23T20:53:14.667Z,9.30
2018-09-23T20:55:42.559Z,9.30
2018-09-23T20:58:10.662Z,9.30
2018-09-23T21:00:38.545Z,9.30
2018-09-23T21:03:06.523Z,9.30
2018-09-23T21:05:34.614Z,9.30
2018-09-23T21:08:02.654Z,9.30
2018-09-23T21:10:30.704Z,9.20
2018-09-23T21:12:58.644Z,9.30
2018-09-23T21:15:26.487Z,9.30
2018-09-23T21:17:54.366Z,9.40
2018-09-23T21:20:22.243Z,9.40
2018-09-23T21:22:50.091Z,9.40
2018-09-23T21:25:18.108Z,9.30
2018-09-23T21:27:45.874Z,9.30
2018-09-23T21:30:13.749Z,9.30
2018-09-23T21:32:41.696Z,9.40
2018-09-23T21:35:09.515Z,9.40
2018-09-23T21:37:37.527Z,9.30
2018-09-23T21:40:05.514Z,9.30
2018-09-23T21:42:33.408Z,9.30
2018-09-23T21:45:01.224Z,9.30
2018-09-23T21:47:29.188Z,9.20
2018-09-23T21:49:56.933Z,9.30
2018-09-23T21:52:24.719Z,9.30
2018-09-23T21:54:52.793Z,9.30
2018-09-23T21:57:20.608Z,9.30
2018-09-23T21:59:48.468Z,9.30
2018-09-23T22:02:16.401Z,9.30
2018-09-23T22:04:44.290Z,9.30
2018-09-23T22:07:12.118Z,9.20
2018-09-23T22:09:39.951Z,9.20
2018-09-23T22:12:08.207Z,9.30
2018-09-23T22:14:36.414Z,9.40
2018-09-23T22:17:04.284Z,9.30
2018-09-23T22:19:32.085Z,9.40
2018-09-23T22:22:00.025Z,9.40
2018-09-23T22:24:27.802Z,9.40
2018-09-23T22:26:55.733Z,9.50
2018-09-23T22:29:23.611Z,9.40
2018-09-23T22:31:51.548Z,9.40
2018-09-23T22:34:19.452Z,9.40
2018-09-23T22:36:47.429Z,9.40
2018-09-23T22:39:15.414Z,9.40
2018-09-23T22:41:43.327Z,9.30
2018-09-23T22:44:11.505Z,9.30
2018-09-23T22:46:40.830Z,9.30
2018-09-23T22:49:08.936Z,9.20
2018-09-23T22:51:36.748Z,9.20
2018-09-23T22:54:04.913Z,9.10
2018-09-23T22:56:32.733Z,9.00
2018-09-23T22:59:01.101Z,9.00
2018-09-23T23:01:29.337Z,9.00
2018-09-23T23:03:57.198Z,8.90
2018-09-23T23:06:24.974Z,8.90
2018-09-23T23:08:52.818Z,8.90
2018-09-23T23:11:21.013Z,8.90
2018-09-23T23:13:48.890Z,8.90
2018-09-23T23:16:16.889Z,8.90
2018-09-23T23:18:44.824Z,8.90
2018-09-23T23:21:12.608Z,8.90
2018-09-23T23:23:40.590Z,9.00
2018-09-23T23:26:08.305Z,8.90
2018-09-23T23:28:36.068Z,8.90
2018-09-23T23:31:03.828Z,8.90
2018-09-23T23:33:31.687Z,8.80
2018-09-23T23:35:59.442Z,8.80
2018-09-23T23:38:27.183Z,8.70
2018-09-23T23:40:54.950Z,8.70
2018-09-23T23:43:22.859Z,8.70
2018-09-23T23:45:50.585Z,8.70
2018-09-23T23:48:18.542Z,8.70
2018-09-23T23:50:46.535Z,8.70
2018-09-23T23:53:14.428Z,8.70
2018-09-23T23:55:42.164Z,8.80
2018-09-23T23:58:09.959Z,8.70
